createdAt,value
2018-11-13T00:00:20.886Z,101397.43
2018-11-13T00:02:49.946Z,101411.30
2018-11-13T00:05:18.297Z,101407.89
2018-11-13T00:07:46.642Z,101409.66
2018-11-13T00:10:15.010Z,101410.64
2018-11-13T00:12:43.364Z,101412.35
2018-11-13T00:15:12.149Z,101418.23
2018-11-13T00:17:40.499Z,101417.47
2018-11-13T00:20:12.211Z,101421.97
2018-11-13T00:22:40.569Z,101424.84
2018-11-13T00:25:10.684Z,101424.52
2018-11-13T00:27:39.363Z,101425.86
2018-11-13T00:30:10.206Z,101423.40
2018-11-13T00:32:38.557Z,101430.29
2018-11-13T00:35:06.900Z,101433.84
2018-11-13T00:37:35.433Z,101439.39
2018-11-13T00:40:03.781Z,101434.13
2018-11-13T00:42:32.126Z,101438.25
2018-11-13T00:45:00.452Z,101442.48
2018-11-13T00:47:28.788Z,101437.84
2018-11-13T00:49:57.121Z,101434.39
2018-11-13T00:52:25.453Z,101441.44
2018-11-13T00:54:53.784Z,101432.98
2018-11-13T00:57:22.171Z,101428.95
2018-11-13T00:59:50.523Z,101423.11
2018-11-13T01:02:18.871Z,101422.23
2018-11-13T01:04:47.233Z,101426.37
2018-11-13T01:07:15.559Z,101409.31
2018-11-13T01:09:43.893Z,101403.94
2018-11-13T01:12:12.217Z,101407.09
2018-11-13T01:14:40.533Z,101408.50
2018-11-13T01:17:08.889Z,101418.23
2018-11-13T01:19:37.329Z,101425.36
2018-11-13T01:22:06.872Z,101431.23
2018-11-13T01:24:35.236Z,101441.17
2018-11-13T01:27:03.594Z,101440.33
2018-11-13T01:29:32.222Z,101445.26
2018-11-13T01:32:00.707Z,101441.67
2018-11-13T01:34:29.164Z,101445.83
2018-11-13T01:36:57.658Z,101465.19
2018-11-13T01:39:26.018Z,101466.00
2018-11-13T01:41:54.352Z,101466.23
2018-11-13T01:44:22.720Z,101478.24
2018-11-13T01:46:51.061Z,101466.79
2018-11-13T01:49:19.375Z,101470.72
2018-11-13T01:51:47.711Z,101465.85
2018-11-13T01:54:16.077Z,101473.41
2018-11-13T01:56:44.390Z,101483.77
2018-11-13T01:59:12.717Z,101479.37
2018-11-13T02:01:41.070Z,101478.97
2018-11-13T02:04:09.400Z,101483.30
2018-11-13T02:06:37.753Z,101469.31
2018-11-13T02:09:08.137Z,101466.56
2018-11-13T02:11:36.632Z,101461.26
2018-11-13T02:14:05.206Z,101463.23
2018-11-13T02:16:33.555Z,101464.98
2018-11-13T02:19:01.918Z,101482.05
2018-11-13T02:21:30.341Z,101472.66
2018-11-13T02:23:58.698Z,101481.41
2018-11-13T02:26:27.051Z,101495.23
2018-11-13T02:28:56.191Z,101485.20
2018-11-13T02:31:24.560Z,101472.16
2018-11-13T02:33:52.895Z,101471.22
2018-11-13T02:36:21.261Z,101472.16
2018-11-13T02:38:49.712Z,101471.19
2018-11-13T02:41:18.066Z,101467.59
2018-11-13T02:43:46.415Z,101490.89
2018-11-13T02:46:14.760Z,101494.58
2018-11-13T02:48:43.717Z,101496.42
2018-11-13T02:51:12.091Z,101454.33
2018-11-13T02:53:40.452Z,101440.72
2018-11-13T02:56:08.818Z,101448.40
2018-11-13T02:58:37.228Z,101457.33
2018-11-13T03:01:05.782Z,101481.49
2018-11-13T03:03:34.131Z,101486.61
2018-11-13T03:06:02.499Z,101494.05
2018-11-13T03:08:30.848Z,101494.11
2018-11-13T03:10:59.205Z,101502.56
2018-11-13T03:13:27.548Z,101509.22
2018-11-13T03:15:55.921Z,101508.41
2018-11-13T03:18:25.149Z,101484.40
2018-11-13T03:20:53.497Z,101472.53
2018-11-13T03:23:21.849Z,101474.75
2018-11-13T03:25:50.185Z,101481.96
2018-11-13T03:28:18.553Z,101476.50
2018-11-13T03:30:46.903Z,101481.77
2018-11-13T03:33:15.219Z,101496.32
2018-11-13T03:35:43.569Z,101503.38
2018-11-13T03:38:11.937Z,101492.45
2018-11-13T03:40:40.905Z,101499.95
2018-11-13T03:43:09.282Z,101513.30
2018-11-13T03:45:37.657Z,101521.36
2018-11-13T03:48:06.620Z,101505.75
2018-11-13T03:50:34.965Z,101499.63
2018-11-13T03:53:03.302Z,101491.61
2018-11-13T03:55:31.646Z,101487.95
2018-11-13T03:57:59.967Z,101492.41
2018-11-13T04:00:28.303Z,101498.41
2018-11-13T04:02:56.641Z,101502.28
2018-11-13T04:05:24.974Z,101502.28
2018-11-13T04:07:54.434Z,101506.62
2018-11-13T04:10:23.505Z,101497.22
2018-11-13T04:12:51.990Z,101484.09
2018-11-13T04:15:22.438Z,101460.58
2018-11-13T04:17:50.900Z,101472.88
2018-11-13T04:20:20.311Z,101475.09
2018-11-13T04:22:49.009Z,101474.78
2018-11-13T04:25:17.901Z,101467.23
2018-11-13T04:27:46.254Z,101473.63
2018-11-13T04:30:15.993Z,101476.78
2018-11-13T04:32:44.564Z,101477.17
2018-11-13T04:35:14.368Z,101478.12
2018-11-13T04:37:42.745Z,101498.31
2018-11-13T04:40:13.040Z,101499.11
2018-11-13T04:42:42.697Z,101498.55
2018-11-13T04:45:12.712Z,101504.77
2018-11-13T04:47:41.068Z,101503.55
2018-11-13T04:50:11.107Z,101484.73
2018-11-13T04:52:39.433Z,101486.86
2018-11-13T04:55:08.389Z,101492.16
2018-11-13T04:57:36.885Z,101497.30
2018-11-13T05:00:07.780Z,101498.07
2018-11-13T05:02:36.151Z,101502.24
2018-11-13T05:05:04.861Z,101495.88
2018-11-13T05:07:33.180Z,101499.33
2018-11-13T05:10:01.594Z,101494.90
2018-11-13T05:12:29.904Z,101499.70
2018-11-13T05:14:58.259Z,101508.11
2018-11-13T05:17:26.605Z,101510.00
2018-11-13T05:19:54.954Z,101505.83
2018-11-13T05:22:23.288Z,101505.25
2018-11-13T05:24:51.629Z,101502.42
2018-11-13T05:27:19.994Z,101506.47
2018-11-13T05:29:48.331Z,101508.40
2018-11-13T05:32:16.665Z,101505.66
2018-11-13T05:34:45.009Z,101509.59
2018-11-13T05:37:13.364Z,101521.92
2018-11-13T05:39:41.881Z,101531.23
2018-11-13T05:42:10.261Z,101530.83
2018-11-13T05:44:38.734Z,101517.64
2018-11-13T05:47:07.281Z,101505.83
2018-11-13T05:49:35.577Z,101512.86
2018-11-13T05:52:03.942Z,101525.14
2018-11-13T05:54:32.292Z,101513.79
2018-11-13T05:57:00.643Z,101512.36
2018-11-13T05:59:29.009Z,101524.09
2018-11-13T06:01:57.365Z,101528.11
2018-11-13T06:04:25.707Z,101529.72
2018-11-13T06:06:54.040Z,101523.88
2018-11-13T06:09:22.390Z,101518.43
2018-11-13T06:11:51.305Z,101515.75
2018-11-13T06:14:19.658Z,101531.20
2018-11-13T06:16:48.248Z,101535.61
2018-11-13T06:19:16.585Z,101535.69
2018-11-13T06:21:44.921Z,101525.95
2018-11-13T06:24:13.257Z,101520.47
2018-11-13T06:26:41.591Z,101537.94
2018-11-13T06:29:09.943Z,101544.85
2018-11-13T06:31:38.289Z,101558.67
2018-11-13T06:34:06.637Z,101566.72
2018-11-13T06:36:34.985Z,101561.77
2018-11-13T06:39:03.695Z,101546.08
2018-11-13T06:41:32.045Z,101531.91
2018-11-13T06:44:00.393Z,101544.97
2018-11-13T06:46:28.733Z,101561.06
2018-11-13T06:48:57.109Z,101574.69
2018-11-13T06:51:25.459Z,101574.25
2018-11-13T06:54:05.273Z,101579.85
2018-11-13T06:56:33.626Z,101579.94
2018-11-13T06:59:02.008Z,101571.68
2018-11-13T07:01:30.344Z,101574.16
2018-11-13T07:03:58.663Z,101577.39
2018-11-13T07:06:27.031Z,101569.32
2018-11-13T07:08:55.377Z,101572.00
2018-11-13T07:11:23.833Z,101572.59
2018-11-13T07:13:52.088Z,101575.58
2018-11-13T07:16:20.436Z,101577.25
2018-11-13T07:18:48.792Z,101579.06
2018-11-13T07:21:17.233Z,101594.27
2018-11-13T07:23:45.550Z,101591.91
2018-11-13T07:26:13.923Z,101590.50
2018-11-13T07:28:42.277Z,101593.35
2018-11-13T07:31:10.657Z,101580.55
2018-11-13T07:33:38.979Z,101599.48
2018-11-13T07:36:07.342Z,101601.23
2018-11-13T07:38:35.689Z,101606.98
2018-11-13T07:41:04.151Z,101615.91
2018-11-13T07:43:32.483Z,101622.48
2018-11-13T07:46:00.825Z,101625.02
2018-11-13T07:48:29.184Z,101621.52
2018-11-13T07:50:57.523Z,101622.39
2018-11-13T07:53:25.866Z,101616.37
2018-11-13T07:55:54.222Z,101617.82
2018-11-13T07:58:22.601Z,101623.19
2018-11-13T08:00:51.100Z,101619.27
2018-11-13T08:03:27.330Z,101621.31
2018-11-13T08:05:55.648Z,101616.16
2018-11-13T08:08:23.987Z,101615.24
2018-11-13T08:10:52.319Z,101618.14
2018-11-13T08:13:20.751Z,101625.03
2018-11-13T08:15:49.029Z,101629.14
2018-11-13T08:18:17.612Z,101630.08
2018-11-13T08:20:45.986Z,101642.42
2018-11-13T08:23:14.335Z,101639.24
2018-11-13T08:25:42.701Z,101639.80
2018-11-13T08:28:11.132Z,101644.69
2018-11-13T08:30:39.471Z,101648.71
2018-11-13T08:33:07.813Z,101645.86
2018-11-13T08:35:36.237Z,101641.86
2018-11-13T08:38:04.534Z,101633.80
2018-11-13T08:40:32.847Z,101631.88
2018-11-13T08:43:01.185Z,101626.55
2018-11-13T08:45:29.542Z,101627.33
2018-11-13T08:47:57.891Z,101633.98
2018-11-13T08:50:26.418Z,101632.38
2018-11-13T08:52:54.643Z,101640.84
2018-11-13T08:55:22.988Z,101646.66
2018-11-13T08:57:51.394Z,101653.08
2018-11-13T09:00:20.258Z,101650.47
2018-11-13T09:02:49.277Z,101641.48
2018-11-13T09:05:18.158Z,101648.50
2018-11-13T09:07:46.482Z,101649.28
2018-11-13T09:10:16.120Z,101657.86
2018-11-13T09:12:44.728Z,101662.67
2018-11-13T09:15:14.720Z,101669.37
2018-11-13T09:17:43.197Z,101667.09
2018-11-13T09:20:12.975Z,101669.92
2018-11-13T09:22:41.422Z,101669.86
2018-11-13T09:25:12.310Z,101678.53
2018-11-13T09:27:40.860Z,101682.16
2018-11-13T09:30:11.746Z,101683.52
2018-11-13T09:32:40.644Z,101682.67
2018-11-13T09:35:10.315Z,101680.28
2018-11-13T09:37:38.750Z,101681.97
2018-11-13T09:40:11.416Z,101685.19
2018-11-13T09:42:40.209Z,101693.51
2018-11-13T09:45:09.200Z,101692.72
2018-11-13T09:47:37.684Z,101694.67
2018-11-13T09:50:08.799Z,101695.99
2018-11-13T09:52:37.369Z,101696.31
2018-11-13T09:55:07.642Z,101709.59
2018-11-13T09:57:36.118Z,101714.39
2018-11-13T10:00:05.115Z,101708.95
2018-11-13T10:02:34.005Z,101703.91
2018-11-13T10:05:02.659Z,101706.59
2018-11-13T10:07:30.189Z,101702.70
2018-11-13T10:09:58.536Z,101707.27
2018-11-13T10:12:26.891Z,101710.83
2018-11-13T10:14:55.282Z,101711.55
2018-11-13T10:17:23.680Z,101716.41
2018-11-13T10:19:52.438Z,101714.97
2018-11-13T10:22:20.798Z,101716.98
2018-11-13T10:24:49.149Z,101714.94
2018-11-13T10:27:17.497Z,101712.19
2018-11-13T10:29:45.871Z,101715.66
2018-11-13T10:32:14.186Z,101710.76
2018-11-13T10:34:42.537Z,101717.94
2018-11-13T10:37:10.896Z,101715.98
2018-11-13T10:39:39.256Z,101716.05
2018-11-13T10:42:07.662Z,101704.50
2018-11-13T10:44:36.018Z,101711.86
2018-11-13T10:47:04.409Z,101701.89
2018-11-13T10:49:32.739Z,101716.05
2018-11-13T10:52:01.077Z,101712.39
2018-11-13T10:54:29.961Z,101719.74
2018-11-13T10:56:58.348Z,101724.90
2018-11-13T10:59:27.273Z,101738.03
2018-11-13T11:01:59.488Z,101737.31
2018-11-13T11:04:33.342Z,101731.41
2018-11-13T11:07:01.665Z,101731.47
2018-11-13T11:09:30.881Z,101729.55
2018-11-13T11:11:59.241Z,101725.22
2018-11-13T11:14:27.608Z,101723.56
2018-11-13T11:16:55.956Z,101724.72
2018-11-13T11:19:24.391Z,101718.39
2018-11-13T11:21:52.691Z,101716.55
2018-11-13T11:24:21.109Z,101727.72
2018-11-13T11:26:49.464Z,101731.84
2018-11-13T11:29:17.796Z,101735.56
2018-11-13T11:31:46.216Z,101740.12
2018-11-13T11:34:14.783Z,101733.50
2018-11-13T11:36:43.133Z,101727.80
2018-11-13T11:39:12.442Z,101720.37
2018-11-13T11:41:40.758Z,101718.39
2018-11-13T11:44:09.771Z,101710.80
2018-11-13T11:46:38.711Z,101708.30
2018-11-13T11:49:07.047Z,101711.86
2018-11-13T11:51:36.220Z,101704.23
2018-11-13T11:54:05.508Z,101709.83
2018-11-13T11:56:34.101Z,101730.91
2018-11-13T11:59:02.584Z,101739.03
2018-11-13T12:01:30.926Z,101733.59
2018-11-13T12:03:59.269Z,101735.47
2018-11-13T12:06:27.615Z,101733.19
2018-11-13T12:08:56.595Z,101734.91
2018-11-13T12:11:25.107Z,101728.12
2018-11-13T12:13:53.470Z,101720.58
2018-11-13T12:16:21.862Z,101712.59
2018-11-13T12:18:50.231Z,101706.66
2018-11-13T12:21:18.631Z,101711.31
2018-11-13T12:23:46.971Z,101714.06
2018-11-13T12:26:15.299Z,101722.44
2018-11-13T12:28:43.655Z,101722.84
2018-11-13T12:31:12.015Z,101726.88
2018-11-13T12:33:40.366Z,101728.20
2018-11-13T12:36:08.710Z,101723.65
2018-11-13T12:38:37.065Z,101724.12
2018-11-13T12:41:05.908Z,101719.61
2018-11-13T12:43:34.245Z,101717.66
2018-11-13T12:46:02.908Z,101722.81
2018-11-13T12:48:31.282Z,101728.03
2018-11-13T12:51:05.811Z,101734.35
2018-11-13T12:53:35.077Z,101733.05
2018-11-13T12:56:03.781Z,101741.93
2018-11-13T12:58:32.826Z,101738.36
2018-11-13T13:01:01.894Z,101740.61
2018-11-13T13:03:30.243Z,101748.83
2018-11-13T13:05:58.577Z,101745.33
2018-11-13T13:08:26.938Z,101749.30
2018-11-13T13:10:55.290Z,101748.09
2018-11-13T13:13:23.635Z,101741.42
2018-11-13T13:15:52.028Z,101738.63
2018-11-13T13:18:20.373Z,101740.88
2018-11-13T13:20:48.729Z,101746.80
2018-11-13T13:23:17.090Z,101757.38
2018-11-13T13:25:45.577Z,101761.41
2018-11-13T13:28:13.816Z,101759.42
2018-11-13T13:30:42.142Z,101758.61
2018-11-13T13:33:10.629Z,101760.43
2018-11-13T13:35:42.102Z,101763.75
2018-11-13T13:38:10.947Z,101767.39
2018-11-13T13:40:40.400Z,101769.78
2018-11-13T13:43:09.635Z,101774.94
2018-11-13T13:45:38.456Z,101775.78
2018-11-13T13:48:06.878Z,101781.97
2018-11-13T13:50:35.199Z,101772.89
2018-11-13T13:53:03.551Z,101780.97
2018-11-13T13:55:31.885Z,101782.65
2018-11-13T13:58:00.237Z,101785.30
2018-11-13T14:00:28.594Z,101787.16
2018-11-13T14:02:56.996Z,101789.81
2018-11-13T14:05:25.345Z,101788.77
2018-11-13T14:07:53.694Z,101778.91
2018-11-13T14:10:22.337Z,101783.39
2018-11-13T14:12:50.673Z,101782.17
2018-11-13T14:15:19.286Z,101783.11
2018-11-13T14:17:47.727Z,101785.72
2018-11-13T14:20:17.271Z,101784.81
2018-11-13T14:22:45.637Z,101785.53
2018-11-13T14:25:14.558Z,101785.44
2018-11-13T14:27:43.122Z,101786.69
2018-11-13T14:30:15.854Z,101789.78
2018-11-13T14:32:45.028Z,101791.36
2018-11-13T14:35:13.612Z,101794.14
2018-11-13T14:37:41.973Z,101792.42
2018-11-13T14:40:14.643Z,101791.95
2018-11-13T14:42:43.238Z,101802.21
2018-11-13T14:45:11.933Z,101802.30
2018-11-13T14:47:41.011Z,101803.99
2018-11-13T14:50:12.585Z,101804.68
2018-11-13T14:52:41.165Z,101809.69
2018-11-13T14:55:12.717Z,101808.58
2018-11-13T14:57:41.200Z,101806.73
2018-11-13T15:00:13.752Z,101811.36
2018-11-13T15:02:42.553Z,101816.80
2018-11-13T15:05:13.327Z,101817.36
2018-11-13T15:07:42.445Z,101823.58
2018-11-13T15:10:13.849Z,101822.82
2018-11-13T15:12:42.242Z,101820.13
2018-11-13T15:15:10.947Z,101820.57
2018-11-13T15:17:39.814Z,101830.48
2018-11-13T15:20:13.585Z,101835.45
2018-11-13T15:22:42.805Z,101846.27
2018-11-13T15:25:13.231Z,101855.70
2018-11-13T15:27:42.033Z,101872.77
2018-11-13T15:30:29.029Z,101871.02
2018-11-13T15:32:59.804Z,101833.52
2018-11-13T15:35:28.167Z,101833.22
2018-11-13T15:37:56.513Z,101839.53
2018-11-13T15:40:26.245Z,101858.11
2018-11-13T15:42:54.583Z,101877.52
2018-11-13T15:45:22.900Z,101877.44
2018-11-13T15:47:52.110Z,101876.59
2018-11-13T15:50:22.737Z,101874.66
2018-11-13T15:52:51.088Z,101866.85
2018-11-13T15:55:19.460Z,101878.09
2018-11-13T15:57:48.290Z,101885.48
2018-11-13T16:00:21.261Z,101887.02
2018-11-13T16:02:49.624Z,101882.98
2018-11-13T16:05:23.440Z,101887.94
2018-11-13T16:07:53.164Z,101890.31
2018-11-13T16:10:22.377Z,101901.98
2018-11-13T16:12:50.840Z,101888.34
2018-11-13T16:15:20.869Z,101892.84
2018-11-13T16:17:49.854Z,101891.19
2018-11-13T16:20:18.441Z,101898.61
2018-11-13T16:22:46.919Z,101891.63
2018-11-13T16:25:15.257Z,101898.39
2018-11-13T16:27:43.621Z,101888.99
2018-11-13T16:30:14.182Z,101895.19
2018-11-13T16:32:43.316Z,101893.95
2018-11-13T16:35:12.820Z,101898.80
2018-11-13T16:37:42.549Z,101903.76
2018-11-13T16:40:13.563Z,101906.44
2018-11-13T16:42:42.367Z,101911.81
2018-11-13T16:45:12.571Z,101912.02
2018-11-13T16:47:40.922Z,101922.92
2018-11-13T16:50:18.953Z,101912.67
2018-11-13T16:52:47.302Z,101915.80
2018-11-13T16:55:21.098Z,101926.09
2018-11-13T16:57:50.343Z,101927.98
2018-11-13T17:00:19.291Z,101932.03
2018-11-13T17:02:47.826Z,101880.76
2018-11-13T17:05:17.127Z,101899.01
2018-11-13T17:07:45.499Z,101921.72
2018-11-13T17:10:16.636Z,101923.92
2018-11-13T17:12:45.328Z,101934.23
2018-11-13T17:15:16.184Z,101931.03
2018-11-13T17:17:45.094Z,101941.59
2018-11-13T17:20:13.978Z,101947.02
2018-11-13T17:22:42.849Z,101944.91
2018-11-13T17:25:12.439Z,101954.01
2018-11-13T17:27:41.935Z,101959.31
2018-11-13T17:30:15.721Z,101967.36
2018-11-13T17:32:44.848Z,101967.64
2018-11-13T17:35:14.465Z,101967.99
2018-11-13T17:37:43.092Z,101973.00
2018-11-13T17:40:14.821Z,101983.43
2018-11-13T17:42:43.818Z,101984.37
2018-11-13T17:45:14.837Z,101990.97
2018-11-13T17:47:43.333Z,101995.97
2018-11-13T17:50:15.941Z,101993.85
2018-11-13T17:52:45.303Z,101989.41
2018-11-13T17:55:14.488Z,101999.36
2018-11-13T17:57:43.824Z,101992.57
2018-11-13T18:00:16.690Z,102008.34
2018-11-13T18:02:46.505Z,102020.50
2018-11-13T18:05:15.184Z,102014.31
2018-11-13T18:07:43.733Z,102010.39
2018-11-13T18:10:12.210Z,102013.70
2018-11-13T18:12:40.728Z,102018.59
2018-11-13T18:15:11.637Z,102029.78
2018-11-13T18:17:40.152Z,102034.41
2018-11-13T18:20:10.716Z,102038.47
2018-11-13T18:22:39.588Z,102042.26
2018-11-13T18:25:08.473Z,102050.38
2018-11-13T18:27:37.572Z,102050.13
2018-11-13T18:30:09.297Z,102062.70
2018-11-13T18:32:37.672Z,102058.80
2018-11-13T18:35:07.260Z,102060.18
2018-11-13T18:37:35.627Z,102059.30
2018-11-13T18:40:04.533Z,102062.94
2018-11-13T18:42:32.885Z,102065.70
2018-11-13T18:45:01.268Z,102069.25
2018-11-13T18:47:29.612Z,102061.60
2018-11-13T18:49:57.985Z,102070.25
2018-11-13T18:52:26.330Z,102076.98
2018-11-13T18:54:55.160Z,102075.76
2018-11-13T18:57:23.512Z,102080.66
2018-11-13T18:59:52.173Z,102078.05
2018-11-13T19:02:20.513Z,102083.86
2018-11-13T19:04:48.932Z,102091.05
2018-11-13T19:07:17.372Z,102093.69
2018-11-13T19:09:45.745Z,102098.16
2018-11-13T19:12:14.106Z,102106.64
2018-11-13T19:14:42.459Z,102100.03
2018-11-13T19:17:10.843Z,102100.06
2018-11-13T19:19:39.223Z,102112.53
2018-11-13T19:22:07.555Z,102110.41
2018-11-13T19:24:35.890Z,102122.42
2018-11-13T19:27:04.268Z,102121.61
2018-11-13T19:29:32.616Z,102130.48
2018-11-13T19:32:00.981Z,102132.31
2018-11-13T19:34:29.307Z,102132.31
2018-11-13T19:36:57.634Z,102129.73
2018-11-13T19:39:25.968Z,102130.16
2018-11-13T19:41:54.350Z,102127.09
2018-11-13T19:44:22.714Z,102135.96
2018-11-13T19:46:51.036Z,102136.03
2018-11-13T19:49:19.448Z,102135.61
2018-11-13T19:51:47.711Z,102141.47
2018-11-13T19:54:16.035Z,102145.55
2018-11-13T19:56:44.407Z,102144.57
2018-11-13T19:59:12.789Z,102143.69
2018-11-13T20:01:41.707Z,102145.03
2018-11-13T20:04:10.107Z,102135.33
2018-11-13T20:06:38.417Z,102145.06
2018-11-13T20:09:07.809Z,102144.20
2018-11-13T20:11:36.164Z,102147.31
2018-11-13T20:14:04.521Z,102146.91
2018-11-13T20:16:32.857Z,102150.89
2018-11-13T20:19:01.199Z,102156.27
2018-11-13T20:21:29.681Z,102152.29
2018-11-13T20:23:58.038Z,102154.94
2018-11-13T20:26:26.361Z,102154.11
2018-11-13T20:28:54.710Z,102154.96
2018-11-13T20:31:23.073Z,102154.48
2018-11-13T20:33:51.428Z,102154.91
2018-11-13T20:36:19.756Z,102153.59
2018-11-13T20:38:48.148Z,102157.58
2018-11-13T20:41:16.504Z,102153.99
2018-11-13T20:43:44.984Z,102156.70
2018-11-13T20:46:13.259Z,102159.37
2018-11-13T20:48:41.595Z,102168.34
2018-11-13T20:51:09.975Z,102163.90
2018-11-13T20:53:38.329Z,102166.14
2018-11-13T20:56:06.680Z,102171.03
2018-11-13T20:58:36.183Z,102176.38
2018-11-13T21:01:04.633Z,102175.53
2018-11-13T21:03:33.004Z,102174.62
2018-11-13T21:06:01.364Z,102178.61
2018-11-13T21:08:29.733Z,102178.23
2018-11-13T21:10:58.556Z,102174.19
2018-11-13T21:13:26.793Z,102177.35
2018-11-13T21:15:55.200Z,102180.05
2018-11-13T21:18:23.526Z,102183.69
2018-11-13T21:20:51.885Z,102176.98
2018-11-13T21:23:20.221Z,102184.59
2018-11-13T21:25:48.644Z,102189.55
2018-11-13T21:28:17.069Z,102189.14
2018-11-13T21:30:45.449Z,102193.60
2018-11-13T21:33:13.815Z,102194.98
2018-11-13T21:35:42.324Z,102199.91
2018-11-13T21:38:10.676Z,102197.69
2018-11-13T21:40:39.098Z,102207.89
2018-11-13T21:43:07.521Z,102207.94
2018-11-13T21:45:35.853Z,102200.86
2018-11-13T21:48:04.209Z,102210.62
2018-11-13T21:50:33.096Z,102204.39
2018-11-13T21:53:01.528Z,102201.76
2018-11-13T21:55:30.292Z,102205.36
2018-11-13T21:57:58.713Z,102203.95
2018-11-13T22:00:29.312Z,102207.94
2018-11-13T22:02:59.792Z,102204.86
2018-11-13T22:05:29.042Z,102209.37
2018-11-13T22:07:57.444Z,102213.78
2018-11-13T22:10:25.798Z,102210.62
2018-11-13T22:12:54.328Z,102220.42
2018-11-13T22:15:23.704Z,102214.64
2018-11-13T22:17:52.058Z,102218.64
2018-11-13T22:20:21.176Z,102217.30
2018-11-13T22:22:50.799Z,102216.86
2018-11-13T22:25:20.905Z,102225.31
2018-11-13T22:27:50.470Z,102225.34
2018-11-13T22:30:20.946Z,102221.35
2018-11-13T22:32:49.428Z,102228.90
2018-11-13T22:35:18.210Z,102232.45
2018-11-13T22:37:46.594Z,102229.32
2018-11-13T22:40:20.600Z,102233.34
2018-11-13T22:42:49.289Z,102235.98
2018-11-13T22:45:20.951Z,102244.89
2018-11-13T22:47:49.277Z,102240.90
2018-11-13T22:50:22.109Z,102249.81
2018-11-13T22:52:50.998Z,102244.00
2018-11-13T22:55:19.791Z,102244.05
2018-11-13T22:57:48.985Z,102248.92
2018-11-13T23:00:18.622Z,102253.84
2018-11-13T23:02:47.991Z,102250.69
2018-11-13T23:05:16.377Z,102252.00
2018-11-13T23:07:44.726Z,102252.91
2018-11-13T23:10:13.957Z,102256.03
2018-11-13T23:12:42.947Z,102259.56
2018-11-13T23:15:14.620Z,102262.69
2018-11-13T23:17:43.598Z,102258.68
2018-11-13T23:20:13.705Z,102256.44
2018-11-13T23:22:42.065Z,102256.44
2018-11-13T23:25:12.114Z,102259.56
2018-11-13T23:27:40.605Z,102259.11
2018-11-13T23:30:11.428Z,102265.84
2018-11-13T23:32:40.008Z,102279.16
2018-11-13T23:35:09.407Z,102273.82
2018-11-13T23:39:02.236Z,102277.37
2018-11-13T23:41:30.552Z,102277.34
2018-11-13T23:43:59.049Z,102276.02
2018-11-13T23:46:27.354Z,102284.02
2018-11-13T23:48:55.693Z,102282.20
2018-11-13T23:51:24.033Z,102274.16
2018-11-13T23:53:52.466Z,102283.50
2018-11-13T23:56:20.779Z,102290.59
2018-11-13T23:58:49.106Z,102295.91
